Tuesday, June 19, 2018, 12:36 AM GMT
Back to Local

CXMI, McNabs Island , N. S.

Location: , , Canada Lat: 44.6
Local Time: 12:36 AM GMT ( 0:36 GMT) Lon: -63.533
Time Zone: GMT Elev: 49 ft

Show me the last for .
Show Coded

Time T Td Feel RH Dir Speed Gust Alt SLP Vis Weather Sky Remarks
2018-06-19 00:00 57 - - 0 230° 26 32 - 29.70 0 Peak wind: 37 mph (33 kts) from 230° at 39 min
2018-06-18 23:00 56 - - 0 220° 29 36 - 29.70 0 Peak wind: 40 mph (35 kts) from 220° at 49 min
2018-06-18 22:00 56 - - 0 230° 31 41 - 29.74 0 Peak wind: 41 mph (36 kts) from 230° at 52 min
2018-06-18 21:00 55 - - 0 220° 25 32 - 29.76 0 Peak wind: 33 mph (29 kts) from 240° at 03 min
2018-06-18 20:00 55 - - 0 220° 18 26 - 29.82 0 Peak wind: 28 mph (25 kts) from 220° at 48 min
2018-06-18 19:00 53 - - 0 180° 12 - - 29.85 0 None
2018-06-18 18:00 55 - - 0 200° 17 23 - 29.89 0 Peak wind: 23 mph (20 kts) from 190° at 59 min
2018-06-18 17:00 54 - - 0 200° 15 - - 29.94 0 Peak wind: 19 mph (17 kts) from 210° at 56 min
2018-06-18 16:00 54 - - 0 200° 13 18 - 29.98 0 None
2018-06-18 15:00 51 - - 0 150° 13 - - 29.99 0 None
2018-06-18 14:00 50 - - 0 150° 12 - - 30.02 0 None
2018-06-18 13:00 50 - 45 0 150° 12 - - 30.05 0 None
2018-06-18 12:00 49 - 45 0 160° 10 - - 30.08 0 None
2018-06-18 11:00 48 - 45 0 140° 8 - - 30.11 0 None
2018-06-18 10:00 48 - 44 0 140° 9 - - 30.13 0 None
2018-06-18 09:00 47 - 43 0 130° 10 - - 30.13 0 None
2018-06-18 08:00 48 - 44 0 140° 7 - - 30.17 0 None
2018-06-18 07:00 48 - 44 0 120° 9 - - 30.15 0 None
2018-06-18 06:00 48 - 44 0 150° 9 - - 30.17 0 None
2018-06-18 05:00 48 - 45 0 140° 8 - - 30.18 0 None
2018-06-18 04:00 49 - 45 0 150° 8 - - 30.20 0 None
2018-06-18 03:00 48 - 45 0 150° 8 - - 30.20 0 None
2018-06-18 02:00 48 - 45 0 120° 6 - - 30.21 0 None
2018-06-18 01:00 49 - 46 0 150° 7 - - 30.21 0 None

Support USWX by starting your Amazon purchase here.